sensor_id;sensor_type;location;lat;lon;timestamp;temperature;humidity
41965;DHT22;50120;53.250;8.702;2022-07-04T00:00:06;14.30;99.90
41965;DHT22;50120;53.250;8.702;2022-07-04T00:02:33;14.30;99.90
41965;DHT22;50120;53.250;8.702;2022-07-04T00:04:59;14.30;99.90
41965;DHT22;50120;53.250;8.702;2022-07-04T00:07:24;14.30;99.90
41965;DHT22;50120;53.250;8.702;2022-07-04T00:09:50;14.20;99.90
41965;DHT22;50120;53.250;8.702;2022-07-04T00:12:16;14.20;99.90
41965;DHT22;50120;53.250;8.702;2022-07-04T00:14:42;14.20;99.90
41965;DHT22;50120;53.250;8.702;2022-07-04T00:17:08;14.10;99.90
41965;DHT22;50120;53.250;8.702;2022-07-04T00:19:34;14.10;99.90
41965;DHT22;50120;53.250;8.702;2022-07-04T00:22:00;14.20;99.90
41965;DHT22;50120;53.250;8.702;2022-07-04T00:24:26;14.10;99.90
41965;DHT22;50120;53.250;8.702;2022-07-04T00:26:52;14.00;99.90
41965;DHT22;50120;53.250;8.702;2022-07-04T00:29:18;14.00;99.90
41965;DHT22;50120;53.250;8.702;2022-07-04T00:31:43;13.90;99.90
41965;DHT22;50120;53.250;8.702;2022-07-04T00:34:09;13.90;99.90
41965;DHT22;50120;53.250;8.702;2022-07-04T00:36:35;13.90;99.90
41965;DHT22;50120;53.250;8.702;2022-07-04T00:39:01;13.90;99.90
41965;DHT22;50120;53.250;8.702;2022-07-04T00:41:27;13.80;99.90
41965;DHT22;50120;53.250;8.702;2022-07-04T00:44:10;13.80;99.90
41965;DHT22;50120;53.250;8.702;2022-07-04T00:46:35;13.70;99.90
41965;DHT22;50120;53.250;8.702;2022-07-04T00:49:04;13.70;99.90
41965;DHT22;50120;53.250;8.702;2022-07-04T00:51:30;13.60;99.90
41965;DHT22;50120;53.250;8.702;2022-07-04T00:53:56;13.60;99.90
41965;DHT22;50120;53.250;8.702;2022-07-04T00:56:23;13.60;99.90
41965;DHT22;50120;53.250;8.702;2022-07-04T00:58:49;13.60;99.90
41965;DHT22;50120;53.250;8.702;2022-07-04T01:01:16;13.50;99.90
41965;DHT22;50120;53.250;8.702;2022-07-04T01:03:43;13.50;99.90
41965;DHT22;50120;53.250;8.702;2022-07-04T01:06:09;13.50;99.90
41965;DHT22;50120;53.250;8.702;2022-07-04T01:08:40;13.50;99.90
41965;DHT22;50120;53.250;8.702;2022-07-04T01:11:06;13.40;99.90
41965;DHT22;50120;53.250;8.702;2022-07-04T01:13:32;13.40;99.90
41965;DHT22;50120;53.250;8.702;2022-07-04T01:15:57;13.40;99.90
41965;DHT22;50120;53.250;8.702;2022-07-04T01:18:23;13.40;99.90
41965;DHT22;50120;53.250;8.702;2022-07-04T01:20:49;13.40;99.90
41965;DHT22;50120;53.250;8.702;2022-07-04T01:23:15;13.40;99.90
41965;DHT22;50120;53.250;8.702;2022-07-04T01:25:42;13.30;99.90
41965;DHT22;50120;53.250;8.702;2022-07-04T01:28:08;13.30;99.90
41965;DHT22;50120;53.250;8.702;2022-07-04T01:30:35;13.30;99.90
41965;DHT22;50120;53.250;8.702;2022-07-04T01:33:01;13.20;99.90
41965;DHT22;50120;53.250;8.702;2022-07-04T01:35:28;13.30;99.90
41965;DHT22;50120;53.250;8.702;2022-07-04T01:37:53;13.20;99.90
41965;DHT22;50120;53.250;8.702;2022-07-04T01:40:19;13.20;99.90
41965;DHT22;50120;53.250;8.702;2022-07-04T01:42:45;13.20;99.90
41965;DHT22;50120;53.250;8.702;2022-07-04T01:45:11;13.20;99.90
41965;DHT22;50120;53.250;8.702;2022-07-04T01:47:38;13.20;99.90
41965;DHT22;50120;53.250;8.702;2022-07-04T01:50:05;13.20;99.90
41965;DHT22;50120;53.250;8.702;2022-07-04T01:52:32;13.20;99.90
41965;DHT22;50120;53.250;8.702;2022-07-04T01:54:58;13.20;99.90
41965;DHT22;50120;53.250;8.702;2022-07-04T01:57:23;13.20;99.90
41965;DHT22;50120;53.250;8.702;2022-07-04T01:59:49;13.20;99.90
41965;DHT22;50120;53.250;8.702;2022-07-04T02:02:33;13.20;99.90
41965;DHT22;50120;53.250;8.702;2022-07-04T02:04:59;13.10;99.90
41965;DHT22;50120;53.250;8.702;2022-07-04T02:07:25;13.10;99.90
41965;DHT22;50120;53.250;8.702;2022-07-04T02:09:50;13.10;99.90
41965;DHT22;50120;53.250;8.702;2022-07-04T02:12:16;13.00;99.90
41965;DHT22;50120;53.250;8.702;2022-07-04T02:15:01;13.00;99.90
41965;DHT22;50120;53.250;8.702;2022-07-04T02:17:26;13.00;99.90
41965;DHT22;50120;53.250;8.702;2022-07-04T02:19:53;12.90;99.90
41965;DHT22;50120;53.250;8.702;2022-07-04T02:22:18;12.90;99.90
41965;DHT22;50120;53.250;8.702;2022-07-04T02:24:44;12.90;99.90
41965;DHT22;50120;53.250;8.702;2022-07-04T02:27:10;12.80;99.90
41965;DHT22;50120;53.250;8.702;2022-07-04T02:29:36;12.90;99.90
41965;DHT22;50120;53.250;8.702;2022-07-04T02:32:02;12.80;99.90
41965;DHT22;50120;53.250;8.702;2022-07-04T02:34:28;12.80;99.90
41965;DHT22;50120;53.250;8.702;2022-07-04T02:36:54;12.80;99.90
41965;DHT22;50120;53.250;8.702;2022-07-04T02:39:20;12.70;99.90
41965;DHT22;50120;53.250;8.702;2022-07-04T02:41:46;12.70;99.90
41965;DHT22;50120;53.250;8.702;2022-07-04T02:44:12;12.70;99.90
41965;DHT22;50120;53.250;8.702;2022-07-04T02:46:37;12.70;99.90
41965;DHT22;50120;53.250;8.702;2022-07-04T02:49:04;12.60;99.90
41965;DHT22;50120;53.250;8.702;2022-07-04T02:51:29;12.60;99.90
41965;DHT22;50120;53.250;8.702;2022-07-04T02:53:55;12.60;99.90
41965;DHT22;50120;53.250;8.702;2022-07-04T02:56:23;12.60;99.90
41965;DHT22;50120;53.250;8.702;2022-07-04T02:58:48;12.60;99.90
41965;DHT22;50120;53.250;8.702;2022-07-04T03:01:14;12.50;99.90
41965;DHT22;50120;53.250;8.702;2022-07-04T03:03:40;12.50;99.90
41965;DHT22;50120;53.250;8.702;2022-07-04T03:06:07;12.50;99.90
41965;DHT22;50120;53.250;8.702;2022-07-04T03:08:33;12.50;99.90
41965;DHT22;50120;53.250;8.702;2022-07-04T03:10:59;12.40;99.90
41965;DHT22;50120;53.250;8.702;2022-07-04T03:13:25;12.40;99.90
41965;DHT22;50120;53.250;8.702;2022-07-04T03:15:51;12.40;99.90
41965;DHT22;50120;53.250;8.702;2022-07-04T03:18:17;12.40;99.90
41965;DHT22;50120;53.250;8.702;2022-07-04T03:20:43;12.40;99.90
41965;DHT22;50120;53.250;8.702;2022-07-04T03:23:08;12.40;99.90
41965;DHT22;50120;53.250;8.702;2022-07-04T03:25:34;12.40;99.90
41965;DHT22;50120;53.250;8.702;2022-07-04T03:28:00;12.40;99.90
41965;DHT22;50120;53.250;8.702;2022-07-04T03:30:26;12.30;99.90
41965;DHT22;50120;53.250;8.702;2022-07-04T03:32:52;12.30;99.90
41965;DHT22;50120;53.250;8.702;2022-07-04T03:35:18;12.30;99.90
41965;DHT22;50120;53.250;8.702;2022-07-04T03:37:43;12.30;99.90
41965;DHT22;50120;53.250;8.702;2022-07-04T03:40:09;12.20;99.90
41965;DHT22;50120;53.250;8.702;2022-07-04T03:42:35;12.20;99.90
41965;DHT22;50120;53.250;8.702;2022-07-04T03:45:01;12.20;99.90
41965;DHT22;50120;53.250;8.702;2022-07-04T03:47:27;12.20;99.90
41965;DHT22;50120;53.250;8.702;2022-07-04T03:49:52;12.20;99.90
41965;DHT22;50120;53.250;8.702;2022-07-04T03:52:18;12.20;99.90
41965;DHT22;50120;53.250;8.702;2022-07-04T03:54:44;12.20;99.90
41965;DHT22;50120;53.250;8.702;2022-07-04T03:57:09;12.20;99.90
41965;DHT22;50120;53.250;8.702;2022-07-04T03:59:35;12.20;99.90
41965;DHT22;50120;53.250;8.702;2022-07-04T04:02:01;12.20;99.90
41965;DHT22;50120;53.250;8.702;2022-07-04T04:04:26;12.20;99.90
41965;DHT22;50120;53.250;8.702;2022-07-04T04:07:11;12.20;99.90
41965;DHT22;50120;53.250;8.702;2022-07-04T04:09:37;12.20;99.90
41965;DHT22;50120;53.250;8.702;2022-07-04T04:12:02;12.20;99.90
41965;DHT22;50120;53.250;8.702;2022-07-04T04:14:28;12.30;99.90
41965;DHT22;50120;53.250;8.702;2022-07-04T04:16:54;12.30;99.90
41965;DHT22;50120;53.250;8.702;2022-07-04T04:19:20;12.30;99.90
41965;DHT22;50120;53.250;8.702;2022-07-04T04:21:46;12.30;99.90
41965;DHT22;50120;53.250;8.702;2022-07-04T04:24:11;12.30;99.90
41965;DHT22;50120;53.250;8.702;2022-07-04T04:26:37;12.30;99.90
41965;DHT22;50120;53.250;8.702;2022-07-04T04:29:03;12.30;99.90
41965;DHT22;50120;53.250;8.702;2022-07-04T04:31:29;12.40;99.90
41965;DHT22;50120;53.250;8.702;2022-07-04T04:33:56;12.40;99.90
41965;DHT22;50120;53.250;8.702;2022-07-04T04:36:22;12.40;99.90
41965;DHT22;50120;53.250;8.702;2022-07-04T04:38:48;12.50;99.90
41965;DHT22;50120;53.250;8.702;2022-07-04T04:41:14;12.50;99.90
41965;DHT22;50120;53.250;8.702;2022-07-04T04:43:40;12.60;99.90
41965;DHT22;50120;53.250;8.702;2022-07-04T04:46:05;12.60;99.90
41965;DHT22;50120;53.250;8.702;2022-07-04T04:48:31;12.70;99.90
41965;DHT22;50120;53.250;8.702;2022-07-04T04:50:57;12.70;99.90
41965;DHT22;50120;53.250;8.702;2022-07-04T04:53:22;12.80;99.90
41965;DHT22;50120;53.250;8.702;2022-07-04T04:55:52;12.80;99.90
41965;DHT22;50120;53.250;8.702;2022-07-04T04:58:19;13.00;99.90
41965;DHT22;50120;53.250;8.702;2022-07-04T05:00:44;13.00;99.90
41965;DHT22;50120;53.250;8.702;2022-07-04T05:03:11;13.10;99.90
41965;DHT22;50120;53.250;8.702;2022-07-04T05:05:37;13.10;99.90
41965;DHT22;50120;53.250;8.702;2022-07-04T05:08:02;13.20;99.90
41965;DHT22;50120;53.250;8.702;2022-07-04T05:10:28;13.20;99.90
41965;DHT22;50120;53.250;8.702;2022-07-04T05:12:54;13.30;99.90
41965;DHT22;50120;53.250;8.702;2022-07-04T05:15:21;13.30;99.90
41965;DHT22;50120;53.250;8.702;2022-07-04T05:17:46;13.40;99.90
41965;DHT22;50120;53.250;8.702;2022-07-04T05:20:12;13.50;99.90
41965;DHT22;50120;53.250;8.702;2022-07-04T05:22:38;13.50;99.90
41965;DHT22;50120;53.250;8.702;2022-07-04T05:25:04;13.60;99.90
41965;DHT22;50120;53.250;8.702;2022-07-04T05:27:30;13.80;99.90
41965;DHT22;50120;53.250;8.702;2022-07-04T05:29:57;13.80;99.90
41965;DHT22;50120;53.250;8.702;2022-07-04T05:32:24;13.90;99.90
41965;DHT22;50120;53.250;8.702;2022-07-04T05:34:50;14.00;99.90
41965;DHT22;50120;53.250;8.702;2022-07-04T05:37:16;14.10;99.90
41965;DHT22;50120;53.250;8.702;2022-07-04T05:39:41;14.30;99.90
41965;DHT22;50120;53.250;8.702;2022-07-04T05:42:07;14.30;99.90
41965;DHT22;50120;53.250;8.702;2022-07-04T05:44:33;14.40;99.90
41965;DHT22;50120;53.250;8.702;2022-07-04T05:46:59;14.50;99.90
41965;DHT22;50120;53.250;8.702;2022-07-04T05:49:24;14.50;99.90
41965;DHT22;50120;53.250;8.702;2022-07-04T05:51:50;14.70;99.90
41965;DHT22;50120;53.250;8.702;2022-07-04T05:54:16;14.70;99.90
41965;DHT22;50120;53.250;8.702;2022-07-04T05:56:41;14.80;99.90
41965;DHT22;50120;53.250;8.702;2022-07-04T05:59:09;14.90;99.90
41965;DHT22;50120;53.250;8.702;2022-07-04T06:01:35;14.90;99.90
41965;DHT22;50120;53.250;8.702;2022-07-04T06:04:02;15.00;99.90
41965;DHT22;50120;53.250;8.702;2022-07-04T06:06:29;15.10;99.90
41965;DHT22;50120;53.250;8.702;2022-07-04T06:08:56;15.20;99.90
41965;DHT22;50120;53.250;8.702;2022-07-04T06:11:21;15.30;99.90
41965;DHT22;50120;53.250;8.702;2022-07-04T06:13:48;15.40;99.90
41965;DHT22;50120;53.250;8.702;2022-07-04T06:16:14;15.50;99.90
41965;DHT22;50120;53.250;8.702;2022-07-04T06:18:40;15.60;99.90
41965;DHT22;50120;53.250;8.702;2022-07-04T06:21:06;15.70;99.90
41965;DHT22;50120;53.250;8.702;2022-07-04T06:23:31;15.80;99.90
41965;DHT22;50120;53.250;8.702;2022-07-04T06:25:57;15.80;99.90
41965;DHT22;50120;53.250;8.702;2022-07-04T06:28:23;15.90;99.90
41965;DHT22;50120;53.250;8.702;2022-07-04T06:30:49;15.90;99.90
41965;DHT22;50120;53.250;8.702;2022-07-04T06:33:14;16.00;99.90
41965;DHT22;50120;53.250;8.702;2022-07-04T06:35:40;16.10;99.90
41965;DHT22;50120;53.250;8.702;2022-07-04T06:38:19;16.20;99.90
41965;DHT22;50120;53.250;8.702;2022-07-04T06:40:46;16.20;99.90
41965;DHT22;50120;53.250;8.702;2022-07-04T06:43:12;16.20;99.90
41965;DHT22;50120;53.250;8.702;2022-07-04T06:45:38;16.30;99.90
41965;DHT22;50120;53.250;8.702;2022-07-04T06:48:05;16.40;99.90
41965;DHT22;50120;53.250;8.702;2022-07-04T06:50:32;16.40;99.90
41965;DHT22;50120;53.250;8.702;2022-07-04T06:53:03;16.60;99.90
41965;DHT22;50120;53.250;8.702;2022-07-04T06:55:29;16.70;99.90
41965;DHT22;50120;53.250;8.702;2022-07-04T06:57:55;16.70;99.90
41965;DHT22;50120;53.250;8.702;2022-07-04T07:00:21;16.90;99.90
41965;DHT22;50120;53.250;8.702;2022-07-04T07:02:47;16.90;99.90
41965;DHT22;50120;53.250;8.702;2022-07-04T07:05:13;17.00;99.90
41965;DHT22;50120;53.250;8.702;2022-07-04T07:07:39;17.10;99.90
41965;DHT22;50120;53.250;8.702;2022-07-04T07:10:06;17.10;99.90
41965;DHT22;50120;53.250;8.702;2022-07-04T07:12:32;17.20;99.90
41965;DHT22;50120;53.250;8.702;2022-07-04T07:14:59;17.30;99.90
41965;DHT22;50120;53.250;8.702;2022-07-04T07:17:25;17.50;99.90
41965;DHT22;50120;53.250;8.702;2022-07-04T07:19:51;17.60;99.90
41965;DHT22;50120;53.250;8.702;2022-07-04T07:22:17;17.70;99.90
41965;DHT22;50120;53.250;8.702;2022-07-04T07:24:43;17.70;99.90
41965;DHT22;50120;53.250;8.702;2022-07-04T07:27:09;17.80;99.90
41965;DHT22;50120;53.250;8.702;2022-07-04T07:29:36;17.90;99.90
41965;DHT22;50120;53.250;8.702;2022-07-04T07:32:03;18.00;99.90
41965;DHT22;50120;53.250;8.702;2022-07-04T07:34:29;18.10;99.90
41965;DHT22;50120;53.250;8.702;2022-07-04T07:36:55;18.20;99.90
41965;DHT22;50120;53.250;8.702;2022-07-04T07:39:21;18.40;99.90
41965;DHT22;50120;53.250;8.702;2022-07-04T07:41:47;18.40;99.90
41965;DHT22;50120;53.250;8.702;2022-07-04T07:44:12;18.50;99.90
41965;DHT22;50120;53.250;8.702;2022-07-04T07:46:39;18.60;99.90
41965;DHT22;50120;53.250;8.702;2022-07-04T07:49:05;18.70;99.90
41965;DHT22;50120;53.250;8.702;2022-07-04T07:51:31;18.80;99.90
41965;DHT22;50120;53.250;8.702;2022-07-04T07:53:57;18.80;99.90
41965;DHT22;50120;53.250;8.702;2022-07-04T07:56:23;19.00;99.90
41965;DHT22;50120;53.250;8.702;2022-07-04T07:58:50;19.00;99.90
41965;DHT22;50120;53.250;8.702;2022-07-04T08:01:16;19.10;99.90
41965;DHT22;50120;53.250;8.702;2022-07-04T08:03:42;19.20;99.90
41965;DHT22;50120;53.250;8.702;2022-07-04T08:06:26;19.30;99.90
41965;DHT22;50120;53.250;8.702;2022-07-04T08:08:52;19.30;99.90
41965;DHT22;50120;53.250;8.702;2022-07-04T08:11:17;19.20;99.90
41965;DHT22;50120;53.250;8.702;2022-07-04T08:13:44;19.30;99.90
41965;DHT22;50120;53.250;8.702;2022-07-04T08:16:10;19.40;99.90
41965;DHT22;50120;53.250;8.702;2022-07-04T08:18:36;19.40;99.90
41965;DHT22;50120;53.250;8.702;2022-07-04T08:21:03;19.30;99.90
41965;DHT22;50120;53.250;8.702;2022-07-04T08:23:33;19.40;99.90
41965;DHT22;50120;53.250;8.702;2022-07-04T08:26:00;19.50;99.90
41965;DHT22;50120;53.250;8.702;2022-07-04T08:28:27;19.60;99.90
41965;DHT22;50120;53.250;8.702;2022-07-04T08:30:53;19.70;99.90
41965;DHT22;50120;53.250;8.702;2022-07-04T08:33:19;19.80;99.90
41965;DHT22;50120;53.250;8.702;2022-07-04T08:35:44;19.90;99.90
41965;DHT22;50120;53.250;8.702;2022-07-04T08:38:10;20.00;99.90
41965;DHT22;50120;53.250;8.702;2022-07-04T08:40:36;20.10;99.90
41965;DHT22;50120;53.250;8.702;2022-07-04T08:43:03;20.20;99.90
41965;DHT22;50120;53.250;8.702;2022-07-04T08:45:33;20.30;99.90
41965;DHT22;50120;53.250;8.702;2022-07-04T08:48:04;20.30;99.90
41965;DHT22;50120;53.250;8.702;2022-07-04T08:50:56;20.20;99.90
41965;DHT22;50120;53.250;8.702;2022-07-04T08:53:30;20.00;99.90
41965;DHT22;50120;53.250;8.702;2022-07-04T08:55:56;20.10;99.90
41965;DHT22;50120;53.250;8.702;2022-07-04T08:58:42;20.20;99.90
41965;DHT22;50120;53.250;8.702;2022-07-04T09:01:09;20.20;99.90
41965;DHT22;50120;53.250;8.702;2022-07-04T09:03:43;20.20;99.90
41965;DHT22;50120;53.250;8.702;2022-07-04T09:06:10;20.30;99.90
41965;DHT22;50120;53.250;8.702;2022-07-04T09:08:40;20.40;99.90
41965;DHT22;50120;53.250;8.702;2022-07-04T09:11:06;20.50;99.90
41965;DHT22;50120;53.250;8.702;2022-07-04T09:13:33;20.50;99.90
41965;DHT22;50120;53.250;8.702;2022-07-04T09:16:00;20.40;99.90
41965;DHT22;50120;53.250;8.702;2022-07-04T09:18:31;20.40;99.90
41965;DHT22;50120;53.250;8.702;2022-07-04T09:20:59;20.50;99.90
41965;DHT22;50120;53.250;8.702;2022-07-04T09:23:32;20.50;99.90
41965;DHT22;50120;53.250;8.702;2022-07-04T09:26:19;20.50;99.90
41965;DHT22;50120;53.250;8.702;2022-07-04T09:31:22;20.60;99.90
41965;DHT22;50120;53.250;8.702;2022-07-04T09:33:59;20.80;99.90
41965;DHT22;50120;53.250;8.702;2022-07-04T09:36:28;20.80;99.90
41965;DHT22;50120;53.250;8.702;2022-07-04T09:41:57;20.60;99.90
41965;DHT22;50120;53.250;8.702;2022-07-04T09:44:46;20.40;99.90
41965;DHT22;50120;53.250;8.702;2022-07-04T09:47:27;20.30;99.90
41965;DHT22;50120;53.250;8.702;2022-07-04T09:52:26;20.50;99.90
41965;DHT22;50120;53.250;8.702;2022-07-04T09:55:00;20.50;99.90
41965;DHT22;50120;53.250;8.702;2022-07-04T09:57:29;20.50;99.90
41965;DHT22;50120;53.250;8.702;2022-07-04T09:59:55;20.50;99.90
41965;DHT22;50120;53.250;8.702;2022-07-04T10:02:21;20.40;99.60
41965;DHT22;50120;53.250;8.702;2022-07-04T10:04:51;20.40;99.70
41965;DHT22;50120;53.250;8.702;2022-07-04T10:07:39;20.40;99.90
41965;DHT22;50120;53.250;8.702;2022-07-04T10:12:51;20.20;99.50
41965;DHT22;50120;53.250;8.702;2022-07-04T10:15:18;20.10;99.90
41965;DHT22;50120;53.250;8.702;2022-07-04T10:17:44;20.10;99.90
41965;DHT22;50120;53.250;8.702;2022-07-04T10:20:11;20.20;99.90
41965;DHT22;50120;53.250;8.702;2022-07-04T10:22:38;20.40;99.90
41965;DHT22;50120;53.250;8.702;2022-07-04T10:25:05;20.60;99.90
41965;DHT22;50120;53.250;8.702;2022-07-04T10:27:32;21.00;99.90
41965;DHT22;50120;53.250;8.702;2022-07-04T10:29:59;21.20;99.90
41965;DHT22;50120;53.250;8.702;2022-07-04T10:32:26;21.30;98.70
41965;DHT22;50120;53.250;8.702;2022-07-04T10:34:52;21.40;98.90
41965;DHT22;50120;53.250;8.702;2022-07-04T10:37:18;21.30;98.50
41965;DHT22;50120;53.250;8.702;2022-07-04T10:39:44;21.20;98.30
41965;DHT22;50120;53.250;8.702;2022-07-04T10:42:22;21.20;98.10
41965;DHT22;50120;53.250;8.702;2022-07-04T10:44:49;21.00;98.40
41965;DHT22;50120;53.250;8.702;2022-07-04T10:47:25;20.90;98.80
41965;DHT22;50120;53.250;8.702;2022-07-04T10:49:53;21.00;99.20
41965;DHT22;50120;53.250;8.702;2022-07-04T10:52:19;21.20;98.20
41965;DHT22;50120;53.250;8.702;2022-07-04T10:54:45;21.30;98.60
41965;DHT22;50120;53.250;8.702;2022-07-04T11:00:03;21.30;97.50
41965;DHT22;50120;53.250;8.702;2022-07-04T11:02:34;21.20;98.10
41965;DHT22;50120;53.250;8.702;2022-07-04T11:05:01;21.30;99.30
41965;DHT22;50120;53.250;8.702;2022-07-04T11:17:55;22.20;95.80
41965;DHT22;50120;53.250;8.702;2022-07-04T11:20:24;22.40;95.30
41965;DHT22;50120;53.250;8.702;2022-07-04T11:22:50;22.30;95.40
41965;DHT22;50120;53.250;8.702;2022-07-04T11:25:16;22.20;94.70
41965;DHT22;50120;53.250;8.702;2022-07-04T11:27:42;22.00;96.20
41965;DHT22;50120;53.250;8.702;2022-07-04T11:30:09;21.90;94.10
41965;DHT22;50120;53.250;8.702;2022-07-04T11:32:38;21.60;95.00
41965;DHT22;50120;53.250;8.702;2022-07-04T11:35:05;21.40;94.70
41965;DHT22;50120;53.250;8.702;2022-07-04T11:37:31;21.30;95.20
41965;DHT22;50120;53.250;8.702;2022-07-04T11:39:57;21.30;95.50
41965;DHT22;50120;53.250;8.702;2022-07-04T11:43:06;21.30;95.70
41965;DHT22;50120;53.250;8.702;2022-07-04T11:45:51;21.40;94.90
41965;DHT22;50120;53.250;8.702;2022-07-04T11:48:25;21.50;96.90
41965;DHT22;50120;53.250;8.702;2022-07-04T11:50:51;21.60;94.20
41965;DHT22;50120;53.250;8.702;2022-07-04T11:53:17;21.50;95.60
41965;DHT22;50120;53.250;8.702;2022-07-04T11:55:59;21.40;96.00
41965;DHT22;50120;53.250;8.702;2022-07-04T11:58:46;21.20;95.30
41965;DHT22;50120;53.250;8.702;2022-07-04T12:01:12;21.30;97.30
41965;DHT22;50120;53.250;8.702;2022-07-04T12:03:38;21.60;94.80
41965;DHT22;50120;53.250;8.702;2022-07-04T12:06:04;21.80;95.60
41965;DHT22;50120;53.250;8.702;2022-07-04T12:08:31;22.00;95.00
41965;DHT22;50120;53.250;8.702;2022-07-04T12:10:57;22.10;94.40
41965;DHT22;50120;53.250;8.702;2022-07-04T12:13:23;22.10;93.20
41965;DHT22;50120;53.250;8.702;2022-07-04T12:15:51;22.00;93.00
41965;DHT22;50120;53.250;8.702;2022-07-04T12:18:27;21.80;92.30
41965;DHT22;50120;53.250;8.702;2022-07-04T12:21:16;21.60;95.30
41965;DHT22;50120;53.250;8.702;2022-07-04T12:23:52;21.60;94.20
41965;DHT22;50120;53.250;8.702;2022-07-04T12:26:18;21.50;93.60
41965;DHT22;50120;53.250;8.702;2022-07-04T12:28:44;21.60;93.70
41965;DHT22;50120;53.250;8.702;2022-07-04T12:31:10;21.50;94.30
41965;DHT22;50120;53.250;8.702;2022-07-04T12:33:36;21.40;96.00
41965;DHT22;50120;53.250;8.702;2022-07-04T12:36:03;21.20;96.90
41965;DHT22;50120;53.250;8.702;2022-07-04T12:41:05;21.00;98.20
41965;DHT22;50120;53.250;8.702;2022-07-04T12:46:24;21.40;98.50
41965;DHT22;50120;53.250;8.702;2022-07-04T12:48:56;21.30;97.30
41965;DHT22;50120;53.250;8.702;2022-07-04T12:51:24;21.10;98.10
41965;DHT22;50120;53.250;8.702;2022-07-04T12:53:52;21.00;97.70
41965;DHT22;50120;53.250;8.702;2022-07-04T12:56:36;20.70;97.20
41965;DHT22;50120;53.250;8.702;2022-07-04T12:59:07;20.60;97.60
41965;DHT22;50120;53.250;8.702;2022-07-04T13:01:35;20.50;97.00
41965;DHT22;50120;53.250;8.702;2022-07-04T13:04:01;20.40;97.80
41965;DHT22;50120;53.250;8.702;2022-07-04T13:06:27;20.40;98.70
41965;DHT22;50120;53.250;8.702;2022-07-04T13:08:54;20.50;98.60
41965;DHT22;50120;53.250;8.702;2022-07-04T13:11:20;20.60;97.80
41965;DHT22;50120;53.250;8.702;2022-07-04T13:14:04;20.80;97.90
41965;DHT22;50120;53.250;8.702;2022-07-04T13:16:30;21.10;98.50
41965;DHT22;50120;53.250;8.702;2022-07-04T13:18:56;21.50;98.80
41965;DHT22;50120;53.250;8.702;2022-07-04T13:21:22;21.70;96.80
41965;DHT22;50120;53.250;8.702;2022-07-04T13:23:48;21.80;98.10
41965;DHT22;50120;53.250;8.702;2022-07-04T13:26:14;22.20;97.60
41965;DHT22;50120;53.250;8.702;2022-07-04T13:28:40;22.30;95.90
41965;DHT22;50120;53.250;8.702;2022-07-04T13:31:06;22.40;95.30
41965;DHT22;50120;53.250;8.702;2022-07-04T13:33:32;22.50;95.40
41965;DHT22;50120;53.250;8.702;2022-07-04T13:35:58;22.60;95.80
41965;DHT22;50120;53.250;8.702;2022-07-04T13:38:24;22.50;94.70
41965;DHT22;50120;53.250;8.702;2022-07-04T13:40:51;22.40;94.30
41965;DHT22;50120;53.250;8.702;2022-07-04T13:43:17;22.40;95.00
41965;DHT22;50120;53.250;8.702;2022-07-04T13:45:43;22.50;94.90
41965;DHT22;50120;53.250;8.702;2022-07-04T13:48:12;22.40;95.10
41965;DHT22;50120;53.250;8.702;2022-07-04T13:50:38;22.50;95.10
41965;DHT22;50120;53.250;8.702;2022-07-04T13:53:05;22.50;93.80
41965;DHT22;50120;53.250;8.702;2022-07-04T13:55:31;22.60;95.40
41965;DHT22;50120;53.250;8.702;2022-07-04T13:57:57;22.90;94.00
41965;DHT22;50120;53.250;8.702;2022-07-04T14:00:24;23.10;95.10
41965;DHT22;50120;53.250;8.702;2022-07-04T14:02:50;23.20;93.90
41965;DHT22;50120;53.250;8.702;2022-07-04T14:05:15;23.10;94.20
41965;DHT22;50120;53.250;8.702;2022-07-04T14:07:41;22.90;93.30
41965;DHT22;50120;53.250;8.702;2022-07-04T14:10:08;22.70;93.90
41965;DHT22;50120;53.250;8.702;2022-07-04T14:12:34;22.60;93.00
41965;DHT22;50120;53.250;8.702;2022-07-04T14:15:00;22.80;93.80
41965;DHT22;50120;53.250;8.702;2022-07-04T14:17:25;22.90;94.10
41965;DHT22;50120;53.250;8.702;2022-07-04T14:19:51;22.80;93.60
41965;DHT22;50120;53.250;8.702;2022-07-04T14:22:17;22.60;93.60
41965;DHT22;50120;53.250;8.702;2022-07-04T14:24:43;22.20;93.50
41965;DHT22;50120;53.250;8.702;2022-07-04T14:27:08;22.10;94.50
41965;DHT22;50120;53.250;8.702;2022-07-04T14:29:34;22.00;94.50
41965;DHT22;50120;53.250;8.702;2022-07-04T14:32:00;21.80;95.00
41965;DHT22;50120;53.250;8.702;2022-07-04T14:34:26;21.70;95.00
41965;DHT22;50120;53.250;8.702;2022-07-04T14:36:51;21.70;95.10
41965;DHT22;50120;53.250;8.702;2022-07-04T14:39:17;21.50;93.60
41965;DHT22;50120;53.250;8.702;2022-07-04T14:41:47;21.50;94.30
41965;DHT22;50120;53.250;8.702;2022-07-04T14:44:13;21.50;95.20
41965;DHT22;50120;53.250;8.702;2022-07-04T14:46:39;21.60;94.10
41965;DHT22;50120;53.250;8.702;2022-07-04T14:49:04;21.90;94.20
41965;DHT22;50120;53.250;8.702;2022-07-04T14:51:30;21.70;94.30
41965;DHT22;50120;53.250;8.702;2022-07-04T14:53:56;21.70;94.20
41965;DHT22;50120;53.250;8.702;2022-07-04T14:56:22;21.70;94.50
41965;DHT22;50120;53.250;8.702;2022-07-04T14:58:47;21.80;95.80
41965;DHT22;50120;53.250;8.702;2022-07-04T15:01:13;21.80;94.50
41965;DHT22;50120;53.250;8.702;2022-07-04T15:03:39;21.70;95.10
41965;DHT22;50120;53.250;8.702;2022-07-04T15:06:17;21.60;95.20
41965;DHT22;50120;53.250;8.702;2022-07-04T15:12:04;21.40;95.70
41965;DHT22;50120;53.250;8.702;2022-07-04T15:14:30;21.50;95.50
41965;DHT22;50120;53.250;8.702;2022-07-04T15:16:56;21.60;96.50
41965;DHT22;50120;53.250;8.702;2022-07-04T15:19:22;21.70;96.00
41965;DHT22;50120;53.250;8.702;2022-07-04T15:21:47;21.70;95.50
41965;DHT22;50120;53.250;8.702;2022-07-04T15:24:32;21.80;94.60
41965;DHT22;50120;53.250;8.702;2022-07-04T15:26:57;22.00;94.80
41965;DHT22;50120;53.250;8.702;2022-07-04T15:29:24;22.10;94.30
41965;DHT22;50120;53.250;8.702;2022-07-04T15:31:51;22.10;93.90
41965;DHT22;50120;53.250;8.702;2022-07-04T15:34:17;21.90;93.90
41965;DHT22;50120;53.250;8.702;2022-07-04T15:36:43;21.80;94.70
41965;DHT22;50120;53.250;8.702;2022-07-04T15:39:14;21.70;94.50
41965;DHT22;50120;53.250;8.702;2022-07-04T15:41:40;21.70;94.10
41965;DHT22;50120;53.250;8.702;2022-07-04T15:44:06;21.70;95.20
41965;DHT22;50120;53.250;8.702;2022-07-04T15:46:33;21.70;94.00
41965;DHT22;50120;53.250;8.702;2022-07-04T15:48:58;21.70;94.20
41965;DHT22;50120;53.250;8.702;2022-07-04T15:51:24;21.70;94.20
41965;DHT22;50120;53.250;8.702;2022-07-04T15:53:50;21.70;94.00
41965;DHT22;50120;53.250;8.702;2022-07-04T15:56:16;21.60;94.80
41965;DHT22;50120;53.250;8.702;2022-07-04T15:58:41;21.60;94.50
41965;DHT22;50120;53.250;8.702;2022-07-04T16:01:07;21.60;93.80
41965;DHT22;50120;53.250;8.702;2022-07-04T16:03:33;21.50;94.00